Upper Deerfield Twp, New Jersey
Current Conditions -  °F | °C
As of 2:54 AM on Friday 28 Nov 2014 (Local Time) from KMIV Reporting Station
Overcast Overcast  
Wind Chill: 26°   Ceiling: 4700
Heat Index: 33°   Visibility: 10mi
Dew Point: 30°   Wind: 8mph
Humidity: 89%   Direction: 300°WNW
Pressure: 30.13"   Gusts: NA
Location:  39.4433°N, 75.2554°W
Report Text: KMIV 280754Z AUTO 30007KT 10SM OVC047 01/M01 A3013 RMK AO2 SLP204 T00061011
Loading
Personal Weather Stations






























Interactive Weather Map New forecast layout! Learn more

10-Day Weather Forecast

Advertisements
Track Severe Weather on mobile